sensor_id;sensor_type;location;lat;lon;timestamp;P1;durP1;ratioP1;P2;durP2;ratioP2
27209;SDS011;14721;42.668;23.386;2022-10-16T00:01:46;13.30;;;7.47;;
27209;SDS011;14721;42.668;23.386;2022-10-16T00:04:12;13.37;;;7.37;;
27209;SDS011;14721;42.668;23.386;2022-10-16T00:06:39;15.63;;;8.07;;
27209;SDS011;14721;42.668;23.386;2022-10-16T00:09:05;15.13;;;7.27;;
27209;SDS011;14721;42.668;23.386;2022-10-16T00:11:32;13.30;;;7.87;;
27209;SDS011;14721;42.668;23.386;2022-10-16T00:14:02;17.87;;;8.10;;
27209;SDS011;14721;42.668;23.386;2022-10-16T00:16:29;14.13;;;6.63;;
27209;SDS011;14721;42.668;23.386;2022-10-16T00:18:54;13.87;;;7.50;;
27209;SDS011;14721;42.668;23.386;2022-10-16T00:21:21;14.27;;;7.43;;
27209;SDS011;14721;42.668;23.386;2022-10-16T00:23:53;15.17;;;8.40;;
27209;SDS011;14721;42.668;23.386;2022-10-16T00:26:24;15.43;;;7.83;;
27209;SDS011;14721;42.668;23.386;2022-10-16T00:28:50;13.03;;;7.60;;
27209;SDS011;14721;42.668;23.386;2022-10-16T00:31:18;13.87;;;7.83;;
27209;SDS011;14721;42.668;23.386;2022-10-16T00:33:46;14.57;;;7.30;;
27209;SDS011;14721;42.668;23.386;2022-10-16T00:36:12;14.97;;;7.70;;
27209;SDS011;14721;42.668;23.386;2022-10-16T00:38:40;13.53;;;8.27;;
27209;SDS011;14721;42.668;23.386;2022-10-16T00:41:07;14.63;;;8.13;;
27209;SDS011;14721;42.668;23.386;2022-10-16T00:43:45;16.57;;;7.97;;
27209;SDS011;14721;42.668;23.386;2022-10-16T00:46:15;14.57;;;7.57;;
27209;SDS011;14721;42.668;23.386;2022-10-16T00:48:45;12.43;;;8.17;;
27209;SDS011;14721;42.668;23.386;2022-10-16T00:51:33;16.33;;;8.20;;
27209;SDS011;14721;42.668;23.386;2022-10-16T00:54:04;17.43;;;7.07;;
27209;SDS011;14721;42.668;23.386;2022-10-16T00:56:36;16.53;;;7.60;;
27209;SDS011;14721;42.668;23.386;2022-10-16T00:59:07;15.87;;;7.60;;
27209;SDS011;14721;42.668;23.386;2022-10-16T01:01:54;15.23;;;7.43;;
27209;SDS011;14721;42.668;23.386;2022-10-16T01:04:21;18.83;;;8.00;;
27209;SDS011;14721;42.668;23.386;2022-10-16T01:06:54;11.30;;;6.60;;
27209;SDS011;14721;42.668;23.386;2022-10-16T01:09:55;17.13;;;7.13;;
27209;SDS011;14721;42.668;23.386;2022-10-16T01:12:36;19.57;;;7.70;;
27209;SDS011;14721;42.668;23.386;2022-10-16T01:15:10;14.90;;;8.77;;
27209;SDS011;14721;42.668;23.386;2022-10-16T01:17:48;11.83;;;6.90;;
27209;SDS011;14721;42.668;23.386;2022-10-16T01:25:29;15.30;;;7.97;;
27209;SDS011;14721;42.668;23.386;2022-10-16T01:27:58;18.23;;;7.53;;
27209;SDS011;14721;42.668;23.386;2022-10-16T01:30:26;15.30;;;8.10;;
27209;SDS011;14721;42.668;23.386;2022-10-16T01:35:34;12.20;;;6.57;;
27209;SDS011;14721;42.668;23.386;2022-10-16T01:40:41;10.10;;;5.23;;
27209;SDS011;14721;42.668;23.386;2022-10-16T01:43:12;9.47;;;4.37;;
27209;SDS011;14721;42.668;23.386;2022-10-16T01:45:41;5.73;;;3.57;;
27209;SDS011;14721;42.668;23.386;2022-10-16T01:48:08;8.83;;;3.93;;
27209;SDS011;14721;42.668;23.386;2022-10-16T01:50:39;8.20;;;3.57;;
27209;SDS011;14721;42.668;23.386;2022-10-16T01:53:08;10.20;;;3.60;;
27209;SDS011;14721;42.668;23.386;2022-10-16T01:55:38;6.17;;;3.47;;
27209;SDS011;14721;42.668;23.386;2022-10-16T01:58:10;6.17;;;3.00;;
27209;SDS011;14721;42.668;23.386;2022-10-16T02:00:38;7.87;;;4.23;;
27209;SDS011;14721;42.668;23.386;2022-10-16T02:03:06;8.90;;;3.97;;
27209;SDS011;14721;42.668;23.386;2022-10-16T02:05:34;6.47;;;3.70;;
27209;SDS011;14721;42.668;23.386;2022-10-16T02:08:06;10.00;;;3.40;;
27209;SDS011;14721;42.668;23.386;2022-10-16T02:10:32;6.53;;;3.30;;
27209;SDS011;14721;42.668;23.386;2022-10-16T02:13:02;5.27;;;3.57;;
27209;SDS011;14721;42.668;23.386;2022-10-16T02:15:32;4.83;;;2.80;;
27209;SDS011;14721;42.668;23.386;2022-10-16T02:17:58;9.10;;;3.83;;
27209;SDS011;14721;42.668;23.386;2022-10-16T02:20:25;7.07;;;4.47;;
27209;SDS011;14721;42.668;23.386;2022-10-16T02:22:55;10.97;;;5.17;;
27209;SDS011;14721;42.668;23.386;2022-10-16T02:25:34;9.17;;;4.77;;
27209;SDS011;14721;42.668;23.386;2022-10-16T02:30:40;14.00;;;5.97;;
27209;SDS011;14721;42.668;23.386;2022-10-16T02:33:10;14.43;;;6.80;;
27209;SDS011;14721;42.668;23.386;2022-10-16T02:35:40;15.83;;;7.07;;
27209;SDS011;14721;42.668;23.386;2022-10-16T02:38:09;12.43;;;6.07;;
27209;SDS011;14721;42.668;23.386;2022-10-16T02:40:35;12.67;;;6.27;;
27209;SDS011;14721;42.668;23.386;2022-10-16T02:43:02;10.70;;;5.53;;
27209;SDS011;14721;42.668;23.386;2022-10-16T02:45:29;16.57;;;6.30;;
27209;SDS011;14721;42.668;23.386;2022-10-16T02:47:54;12.70;;;5.80;;
27209;SDS011;14721;42.668;23.386;2022-10-16T02:50:20;14.23;;;7.33;;
27209;SDS011;14721;42.668;23.386;2022-10-16T02:52:45;13.07;;;6.70;;
27209;SDS011;14721;42.668;23.386;2022-10-16T02:55:11;14.57;;;6.37;;
27209;SDS011;14721;42.668;23.386;2022-10-16T02:57:36;14.33;;;6.00;;
27209;SDS011;14721;42.668;23.386;2022-10-16T03:00:03;12.03;;;5.50;;
27209;SDS011;14721;42.668;23.386;2022-10-16T03:02:29;13.37;;;6.30;;
27209;SDS011;14721;42.668;23.386;2022-10-16T03:04:55;11.63;;;5.53;;
27209;SDS011;14721;42.668;23.386;2022-10-16T03:07:20;11.90;;;6.23;;
27209;SDS011;14721;42.668;23.386;2022-10-16T03:09:46;10.67;;;5.70;;
27209;SDS011;14721;42.668;23.386;2022-10-16T03:12:11;11.30;;;5.80;;
27209;SDS011;14721;42.668;23.386;2022-10-16T03:14:37;8.87;;;5.27;;
27209;SDS011;14721;42.668;23.386;2022-10-16T03:17:02;12.27;;;5.70;;
27209;SDS011;14721;42.668;23.386;2022-10-16T03:19:28;12.30;;;5.60;;
27209;SDS011;14721;42.668;23.386;2022-10-16T03:21:53;14.10;;;6.63;;
27209;SDS011;14721;42.668;23.386;2022-10-16T03:24:19;16.20;;;6.23;;
27209;SDS011;14721;42.668;23.386;2022-10-16T03:26:44;11.53;;;5.83;;
27209;SDS011;14721;42.668;23.386;2022-10-16T03:29:10;13.87;;;6.10;;
27209;SDS011;14721;42.668;23.386;2022-10-16T03:31:35;12.43;;;5.87;;
27209;SDS011;14721;42.668;23.386;2022-10-16T03:34:01;17.40;;;7.10;;
27209;SDS011;14721;42.668;23.386;2022-10-16T03:36:26;12.00;;;5.83;;
27209;SDS011;14721;42.668;23.386;2022-10-16T03:38:52;9.60;;;5.57;;
27209;SDS011;14721;42.668;23.386;2022-10-16T03:41:17;15.67;;;6.20;;
27209;SDS011;14721;42.668;23.386;2022-10-16T03:43:43;16.80;;;7.43;;
27209;SDS011;14721;42.668;23.386;2022-10-16T03:46:08;12.07;;;6.83;;
27209;SDS011;14721;42.668;23.386;2022-10-16T03:48:34;17.87;;;5.90;;
27209;SDS011;14721;42.668;23.386;2022-10-16T03:50:59;13.57;;;6.77;;
27209;SDS011;14721;42.668;23.386;2022-10-16T03:53:24;11.57;;;5.73;;
27209;SDS011;14721;42.668;23.386;2022-10-16T03:55:50;11.00;;;6.13;;
27209;SDS011;14721;42.668;23.386;2022-10-16T03:58:16;10.13;;;5.67;;
27209;SDS011;14721;42.668;23.386;2022-10-16T04:00:42;9.77;;;4.90;;
27209;SDS011;14721;42.668;23.386;2022-10-16T04:03:08;8.63;;;4.90;;
27209;SDS011;14721;42.668;23.386;2022-10-16T04:05:35;11.60;;;5.23;;
27209;SDS011;14721;42.668;23.386;2022-10-16T04:08:00;9.57;;;4.47;;
27209;SDS011;14721;42.668;23.386;2022-10-16T04:10:27;9.10;;;4.90;;
27209;SDS011;14721;42.668;23.386;2022-10-16T04:12:52;13.97;;;5.00;;
27209;SDS011;14721;42.668;23.386;2022-10-16T04:15:21;10.70;;;5.23;;
27209;SDS011;14721;42.668;23.386;2022-10-16T04:17:47;8.83;;;5.03;;
27209;SDS011;14721;42.668;23.386;2022-10-16T04:20:13;8.67;;;4.80;;
27209;SDS011;14721;42.668;23.386;2022-10-16T04:22:38;9.13;;;5.00;;
27209;SDS011;14721;42.668;23.386;2022-10-16T04:25:04;7.47;;;4.30;;
27209;SDS011;14721;42.668;23.386;2022-10-16T04:27:30;11.30;;;5.23;;
27209;SDS011;14721;42.668;23.386;2022-10-16T04:29:56;11.20;;;4.50;;
27209;SDS011;14721;42.668;23.386;2022-10-16T04:32:23;10.27;;;4.87;;
27209;SDS011;14721;42.668;23.386;2022-10-16T04:34:48;7.30;;;4.47;;
27209;SDS011;14721;42.668;23.386;2022-10-16T04:37:14;8.97;;;5.20;;
27209;SDS011;14721;42.668;23.386;2022-10-16T04:39:39;10.17;;;5.53;;
27209;SDS011;14721;42.668;23.386;2022-10-16T04:42:04;10.00;;;4.60;;
27209;SDS011;14721;42.668;23.386;2022-10-16T04:44:30;9.67;;;5.43;;
27209;SDS011;14721;42.668;23.386;2022-10-16T04:46:55;9.57;;;5.30;;
27209;SDS011;14721;42.668;23.386;2022-10-16T04:49:21;11.37;;;5.63;;
27209;SDS011;14721;42.668;23.386;2022-10-16T04:51:47;11.70;;;5.33;;
27209;SDS011;14721;42.668;23.386;2022-10-16T04:54:13;11.03;;;5.30;;
27209;SDS011;14721;42.668;23.386;2022-10-16T04:56:38;9.33;;;4.97;;
27209;SDS011;14721;42.668;23.386;2022-10-16T04:59:15;10.03;;;5.30;;
27209;SDS011;14721;42.668;23.386;2022-10-16T05:01:42;12.57;;;5.23;;
27209;SDS011;14721;42.668;23.386;2022-10-16T05:04:08;13.40;;;5.90;;
27209;SDS011;14721;42.668;23.386;2022-10-16T05:06:37;9.40;;;5.73;;
27209;SDS011;14721;42.668;23.386;2022-10-16T05:09:06;14.93;;;6.17;;
27209;SDS011;14721;42.668;23.386;2022-10-16T05:11:35;14.63;;;8.07;;
27209;SDS011;14721;42.668;23.386;2022-10-16T05:14:06;25.00;;;10.97;;
27209;SDS011;14721;42.668;23.386;2022-10-16T05:16:35;18.93;;;10.00;;
27209;SDS011;14721;42.668;23.386;2022-10-16T05:19:03;18.43;;;8.97;;
27209;SDS011;14721;42.668;23.386;2022-10-16T05:21:28;16.77;;;10.03;;
27209;SDS011;14721;42.668;23.386;2022-10-16T05:23:54;20.87;;;10.53;;
27209;SDS011;14721;42.668;23.386;2022-10-16T05:26:20;19.40;;;10.33;;
27209;SDS011;14721;42.668;23.386;2022-10-16T05:28:49;22.40;;;10.70;;
27209;SDS011;14721;42.668;23.386;2022-10-16T05:31:20;24.10;;;10.67;;
27209;SDS011;14721;42.668;23.386;2022-10-16T05:33:57;21.10;;;9.20;;
27209;SDS011;14721;42.668;23.386;2022-10-16T05:36:27;16.63;;;9.20;;
27209;SDS011;14721;42.668;23.386;2022-10-16T05:38:56;22.70;;;8.67;;
27209;SDS011;14721;42.668;23.386;2022-10-16T05:41:25;15.37;;;8.40;;
27209;SDS011;14721;42.668;23.386;2022-10-16T05:44:03;16.53;;;8.53;;
27209;SDS011;14721;42.668;23.386;2022-10-16T05:46:32;20.00;;;9.00;;
27209;SDS011;14721;42.668;23.386;2022-10-16T05:48:58;13.23;;;7.20;;
27209;SDS011;14721;42.668;23.386;2022-10-16T05:51:24;12.37;;;7.30;;
27209;SDS011;14721;42.668;23.386;2022-10-16T05:53:49;16.03;;;7.03;;
27209;SDS011;14721;42.668;23.386;2022-10-16T05:56:15;11.80;;;6.47;;
27209;SDS011;14721;42.668;23.386;2022-10-16T05:58:41;14.70;;;6.40;;
27209;SDS011;14721;42.668;23.386;2022-10-16T06:01:10;12.90;;;7.20;;
27209;SDS011;14721;42.668;23.386;2022-10-16T06:03:40;12.00;;;6.93;;
27209;SDS011;14721;42.668;23.386;2022-10-16T06:06:10;14.90;;;6.30;;
27209;SDS011;14721;42.668;23.386;2022-10-16T06:08:42;11.57;;;6.80;;
27209;SDS011;14721;42.668;23.386;2022-10-16T06:11:11;12.57;;;5.97;;
27209;SDS011;14721;42.668;23.386;2022-10-16T06:13:39;12.57;;;5.83;;
27209;SDS011;14721;42.668;23.386;2022-10-16T06:16:06;11.30;;;6.23;;
27209;SDS011;14721;42.668;23.386;2022-10-16T06:18:32;12.93;;;6.15;;
27209;SDS011;14721;42.668;23.386;2022-10-16T06:20:58;11.98;;;5.57;;
27209;SDS011;14721;42.668;23.386;2022-10-16T06:23:24;11.10;;;5.95;;
27209;SDS011;14721;42.668;23.386;2022-10-16T06:25:50;10.02;;;5.85;;
27209;SDS011;14721;42.668;23.386;2022-10-16T06:28:16;8.93;;;5.10;;
27209;SDS011;14721;42.668;23.386;2022-10-16T06:30:42;11.65;;;4.85;;
27209;SDS011;14721;42.668;23.386;2022-10-16T06:33:11;10.07;;;5.60;;
27209;SDS011;14721;42.668;23.386;2022-10-16T06:35:37;8.57;;;5.57;;
27209;SDS011;14721;42.668;23.386;2022-10-16T06:38:02;13.15;;;6.20;;
27209;SDS011;14721;42.668;23.386;2022-10-16T06:40:28;11.80;;;5.88;;
27209;SDS011;14721;42.668;23.386;2022-10-16T06:43:00;10.80;;;5.35;;
27209;SDS011;14721;42.668;23.386;2022-10-16T06:45:26;10.38;;;5.88;;
27209;SDS011;14721;42.668;23.386;2022-10-16T06:47:54;11.23;;;4.90;;
27209;SDS011;14721;42.668;23.386;2022-10-16T06:50:22;10.13;;;5.18;;
27209;SDS011;14721;42.668;23.386;2022-10-16T06:52:48;12.25;;;5.25;;
27209;SDS011;14721;42.668;23.386;2022-10-16T06:55:14;7.03;;;4.57;;
27209;SDS011;14721;42.668;23.386;2022-10-16T06:57:42;8.50;;;4.45;;
27209;SDS011;14721;42.668;23.386;2022-10-16T07:00:08;7.28;;;5.10;;
27209;SDS011;14721;42.668;23.386;2022-10-16T07:02:37;10.70;;;4.25;;
27209;SDS011;14721;42.668;23.386;2022-10-16T07:05:04;7.53;;;4.47;;
27209;SDS011;14721;42.668;23.386;2022-10-16T07:07:30;7.93;;;4.38;;
27209;SDS011;14721;42.668;23.386;2022-10-16T07:09:56;12.48;;;6.13;;
27209;SDS011;14721;42.668;23.386;2022-10-16T07:12:21;12.05;;;6.90;;
27209;SDS011;14721;42.668;23.386;2022-10-16T07:14:47;10.38;;;4.43;;
27209;SDS011;14721;42.668;23.386;2022-10-16T07:17:12;5.97;;;4.15;;
27209;SDS011;14721;42.668;23.386;2022-10-16T07:19:38;10.15;;;4.63;;
27209;SDS011;14721;42.668;23.386;2022-10-16T07:22:03;8.68;;;4.63;;
27209;SDS011;14721;42.668;23.386;2022-10-16T07:24:29;9.13;;;4.35;;
27209;SDS011;14721;42.668;23.386;2022-10-16T07:26:55;8.88;;;4.65;;
27209;SDS011;14721;42.668;23.386;2022-10-16T07:29:21;15.55;;;6.90;;
27209;SDS011;14721;42.668;23.386;2022-10-16T07:31:47;8.38;;;4.85;;
27209;SDS011;14721;42.668;23.386;2022-10-16T07:34:14;7.30;;;5.25;;
27209;SDS011;14721;42.668;23.386;2022-10-16T07:36:40;7.00;;;3.90;;
27209;SDS011;14721;42.668;23.386;2022-10-16T07:39:06;7.68;;;4.30;;
27209;SDS011;14721;42.668;23.386;2022-10-16T07:41:33;7.63;;;4.57;;
27209;SDS011;14721;42.668;23.386;2022-10-16T07:44:01;10.85;;;4.43;;
27209;SDS011;14721;42.668;23.386;2022-10-16T07:46:27;10.63;;;5.57;;
27209;SDS011;14721;42.668;23.386;2022-10-16T07:48:53;9.60;;;4.22;;
27209;SDS011;14721;42.668;23.386;2022-10-16T07:51:20;6.32;;;4.22;;
27209;SDS011;14721;42.668;23.386;2022-10-16T07:53:48;8.38;;;4.53;;
27209;SDS011;14721;42.668;23.386;2022-10-16T07:56:15;7.70;;;4.38;;
27209;SDS011;14721;42.668;23.386;2022-10-16T07:58:42;11.68;;;5.78;;
27209;SDS011;14721;42.668;23.386;2022-10-16T08:01:09;9.77;;;4.25;;
27209;SDS011;14721;42.668;23.386;2022-10-16T08:03:36;7.18;;;4.35;;
27209;SDS011;14721;42.668;23.386;2022-10-16T08:06:03;8.85;;;4.28;;
27209;SDS011;14721;42.668;23.386;2022-10-16T08:08:29;7.40;;;4.43;;
27209;SDS011;14721;42.668;23.386;2022-10-16T08:10:55;15.73;;;6.88;;
27209;SDS011;14721;42.668;23.386;2022-10-16T08:13:32;14.35;;;6.07;;
27209;SDS011;14721;42.668;23.386;2022-10-16T08:15:58;9.32;;;4.45;;
27209;SDS011;14721;42.668;23.386;2022-10-16T08:18:25;11.50;;;4.97;;
27209;SDS011;14721;42.668;23.386;2022-10-16T08:20:59;11.20;;;4.70;;
27209;SDS011;14721;42.668;23.386;2022-10-16T08:23:25;6.38;;;4.07;;
27209;SDS011;14721;42.668;23.386;2022-10-16T08:25:51;9.13;;;4.60;;
27209;SDS011;14721;42.668;23.386;2022-10-16T08:28:18;20.20;;;9.18;;
27209;SDS011;14721;42.668;23.386;2022-10-16T08:30:44;7.82;;;4.05;;
27209;SDS011;14721;42.668;23.386;2022-10-16T08:33:12;7.55;;;3.63;;
27209;SDS011;14721;42.668;23.386;2022-10-16T08:35:38;9.88;;;4.40;;
27209;SDS011;14721;42.668;23.386;2022-10-16T08:38:04;7.72;;;3.28;;
27209;SDS011;14721;42.668;23.386;2022-10-16T08:40:31;17.35;;;5.22;;
27209;SDS011;14721;42.668;23.386;2022-10-16T08:46:50;5.80;;;3.67;;
27209;SDS011;14721;42.668;23.386;2022-10-16T08:48:50;26.13;;;10.45;;
27209;SDS011;14721;42.668;23.386;2022-10-16T08:51:28;5.88;;;3.45;;
27209;SDS011;14721;42.668;23.386;2022-10-16T08:56:23;5.90;;;2.65;;
27209;SDS011;14721;42.668;23.386;2022-10-16T08:58:51;6.38;;;2.95;;
27209;SDS011;14721;42.668;23.386;2022-10-16T09:01:17;7.68;;;2.70;;
27209;SDS011;14721;42.668;23.386;2022-10-16T09:11:51;3.97;;;2.50;;
27209;SDS011;14721;42.668;23.386;2022-10-16T09:19:51;8.10;;;3.00;;
27209;SDS011;14721;42.668;23.386;2022-10-16T09:22:37;4.45;;;2.83;;
27209;SDS011;14721;42.668;23.386;2022-10-16T09:25:15;8.23;;;2.97;;
27209;SDS011;14721;42.668;23.386;2022-10-16T09:27:43;4.80;;;2.42;;
27209;SDS011;14721;42.668;23.386;2022-10-16T09:30:13;7.25;;;3.08;;
27209;SDS011;14721;42.668;23.386;2022-10-16T09:32:43;12.13;;;5.22;;
27209;SDS011;14721;42.668;23.386;2022-10-16T09:35:13;6.20;;;2.72;;
27209;SDS011;14721;42.668;23.386;2022-10-16T09:37:42;6.60;;;3.08;;
27209;SDS011;14721;42.668;23.386;2022-10-16T09:40:13;8.27;;;2.63;;
27209;SDS011;14721;42.668;23.386;2022-10-16T09:42:49;5.05;;;2.38;;
27209;SDS011;14721;42.668;23.386;2022-10-16T09:45:23;3.78;;;2.28;;
27209;SDS011;14721;42.668;23.386;2022-10-16T09:47:49;5.60;;;2.50;;
27209;SDS011;14721;42.668;23.386;2022-10-16T09:50:54;4.93;;;2.78;;
27209;SDS011;14721;42.668;23.386;2022-10-16T09:53:09;4.00;;;2.42;;
27209;SDS011;14721;42.668;23.386;2022-10-16T09:55:47;6.05;;;3.00;;
27209;SDS011;14721;42.668;23.386;2022-10-16T09:58:13;5.13;;;2.10;;
27209;SDS011;14721;42.668;23.386;2022-10-16T10:00:39;6.40;;;2.95;;
27209;SDS011;14721;42.668;23.386;2022-10-16T10:03:11;4.60;;;2.33;;
27209;SDS011;14721;42.668;23.386;2022-10-16T10:05:37;4.40;;;2.00;;
27209;SDS011;14721;42.668;23.386;2022-10-16T10:08:05;4.45;;;2.47;;
27209;SDS011;14721;42.668;23.386;2022-10-16T10:10:42;4.13;;;2.00;;
27209;SDS011;14721;42.668;23.386;2022-10-16T10:13:21;4.57;;;2.40;;
27209;SDS011;14721;42.668;23.386;2022-10-16T10:15:51;4.95;;;2.70;;
27209;SDS011;14721;42.668;23.386;2022-10-16T10:18:18;3.80;;;2.30;;
27209;SDS011;14721;42.668;23.386;2022-10-16T10:20:46;3.25;;;2.25;;
27209;SDS011;14721;42.668;23.386;2022-10-16T10:23:23;5.30;;;2.13;;
27209;SDS011;14721;42.668;23.386;2022-10-16T10:25:57;5.25;;;2.40;;
27209;SDS011;14721;42.668;23.386;2022-10-16T10:37:28;3.70;;;2.08;;
27209;SDS011;14721;42.668;23.386;2022-10-16T10:46:06;4.30;;;2.35;;
27209;SDS011;14721;42.668;23.386;2022-10-16T10:54:32;3.58;;;2.08;;
27209;SDS011;14721;42.668;23.386;2022-10-16T10:57:09;5.25;;;2.00;;
27209;SDS011;14721;42.668;23.386;2022-10-16T11:08:16;4.95;;;2.28;;
27209;SDS011;14721;42.668;23.386;2022-10-16T11:10:50;4.22;;;2.15;;
27209;SDS011;14721;42.668;23.386;2022-10-16T11:13:22;6.00;;;2.28;;
27209;SDS011;14721;42.668;23.386;2022-10-16T11:15:52;4.82;;;2.03;;
27209;SDS011;14721;42.668;23.386;2022-10-16T11:18:24;3.90;;;2.40;;
27209;SDS011;14721;42.668;23.386;2022-10-16T11:21:06;4.82;;;2.25;;
27209;SDS011;14721;42.668;23.386;2022-10-16T11:23:46;4.82;;;1.80;;
27209;SDS011;14721;42.668;23.386;2022-10-16T11:26:24;4.60;;;2.20;;
27209;SDS011;14721;42.668;23.386;2022-10-16T11:28:53;3.75;;;1.90;;
27209;SDS011;14721;42.668;23.386;2022-10-16T11:36:47;4.78;;;1.92;;
27209;SDS011;14721;42.668;23.386;2022-10-16T11:41:54;6.85;;;2.90;;
27209;SDS011;14721;42.668;23.386;2022-10-16T11:49:31;3.90;;;2.47;;
27209;SDS011;14721;42.668;23.386;2022-10-16T11:57:33;6.07;;;2.10;;
27209;SDS011;14721;42.668;23.386;2022-10-16T12:05:50;3.95;;;1.95;;
27209;SDS011;14721;42.668;23.386;2022-10-16T12:08:31;2.70;;;1.98;;
27209;SDS011;14721;42.668;23.386;2022-10-16T12:12:00;3.88;;;2.17;;
27209;SDS011;14721;42.668;23.386;2022-10-16T12:14:04;3.95;;;1.80;;
27209;SDS011;14721;42.668;23.386;2022-10-16T12:16:37;3.72;;;2.22;;
27209;SDS011;14721;42.668;23.386;2022-10-16T12:19:22;3.20;;;1.70;;
27209;SDS011;14721;42.668;23.386;2022-10-16T12:21:48;4.13;;;2.35;;
27209;SDS011;14721;42.668;23.386;2022-10-16T12:24:27;4.35;;;2.00;;
27209;SDS011;14721;42.668;23.386;2022-10-16T12:26:57;3.00;;;2.05;;
27209;SDS011;14721;42.668;23.386;2022-10-16T12:34:53;3.88;;;2.13;;
27209;SDS011;14721;42.668;23.386;2022-10-16T12:37:20;3.67;;;2.33;;
27209;SDS011;14721;42.668;23.386;2022-10-16T12:39:49;4.55;;;1.70;;
27209;SDS011;14721;42.668;23.386;2022-10-16T12:42:19;3.58;;;2.10;;
27209;SDS011;14721;42.668;23.386;2022-10-16T12:45:25;3.70;;;2.20;;
27209;SDS011;14721;42.668;23.386;2022-10-16T12:47:52;4.90;;;2.03;;
27209;SDS011;14721;42.668;23.386;2022-10-16T12:50:24;4.13;;;2.10;;
27209;SDS011;14721;42.668;23.386;2022-10-16T12:52:51;2.80;;;1.90;;
27209;SDS011;14721;42.668;23.386;2022-10-16T12:55:17;5.80;;;2.00;;
27209;SDS011;14721;42.668;23.386;2022-10-16T13:24:53;4.03;;;1.80;;
27209;SDS011;14721;42.668;23.386;2022-10-16T13:30:02;3.33;;;2.20;;
27209;SDS011;14721;42.668;23.386;2022-10-16T13:32:44;6.15;;;2.13;;
27209;SDS011;14721;42.668;23.386;2022-10-16T13:35:46;7.20;;;1.85;;
27209;SDS011;14721;42.668;23.386;2022-10-16T13:38:13;7.45;;;2.05;;
27209;SDS011;14721;42.668;23.386;2022-10-16T13:40:48;3.45;;;1.80;;
27209;SDS011;14721;42.668;23.386;2022-10-16T13:43:13;2.72;;;1.52;;
27209;SDS011;14721;42.668;23.386;2022-10-16T13:45:39;3.65;;;2.42;;
27209;SDS011;14721;42.668;23.386;2022-10-16T13:48:05;2.63;;;1.42;;
27209;SDS011;14721;42.668;23.386;2022-10-16T13:50:34;5.28;;;2.45;;
27209;SDS011;14721;42.668;23.386;2022-10-16T13:53:06;4.40;;;2.03;;
27209;SDS011;14721;42.668;23.386;2022-10-16T13:55:37;4.47;;;1.75;;
27209;SDS011;14721;42.668;23.386;2022-10-16T13:58:13;4.13;;;1.65;;
27209;SDS011;14721;42.668;23.386;2022-10-16T14:00:39;3.92;;;2.20;;
27209;SDS011;14721;42.668;23.386;2022-10-16T14:03:17;6.05;;;2.13;;
27209;SDS011;14721;42.668;23.386;2022-10-16T14:05:49;3.83;;;1.70;;
27209;SDS011;14721;42.668;23.386;2022-10-16T14:08:17;3.17;;;1.60;;
27209;SDS011;14721;42.668;23.386;2022-10-16T14:10:50;3.42;;;1.85;;
27209;SDS011;14721;42.668;23.386;2022-10-16T14:13:19;2.20;;;1.30;;
27209;SDS011;14721;42.668;23.386;2022-10-16T14:15:49;3.10;;;1.50;;
27209;SDS011;14721;42.668;23.386;2022-10-16T14:18:21;2.80;;;1.58;;
27209;SDS011;14721;42.668;23.386;2022-10-16T14:20:50;3.17;;;1.52;;
27209;SDS011;14721;42.668;23.386;2022-10-16T14:23:23;2.80;;;1.58;;
27209;SDS011;14721;42.668;23.386;2022-10-16T14:25:54;2.80;;;1.38;;
27209;SDS011;14721;42.668;23.386;2022-10-16T14:28:31;3.75;;;2.08;;
27209;SDS011;14721;42.668;23.386;2022-10-16T14:30:57;2.42;;;1.70;;
27209;SDS011;14721;42.668;23.386;2022-10-16T14:33:31;3.95;;;1.65;;
27209;SDS011;14721;42.668;23.386;2022-10-16T14:36:05;4.80;;;1.80;;
27209;SDS011;14721;42.668;23.386;2022-10-16T14:38:35;3.13;;;1.65;;
27209;SDS011;14721;42.668;23.386;2022-10-16T14:41:03;3.03;;;1.77;;
27209;SDS011;14721;42.668;23.386;2022-10-16T14:43:36;5.78;;;2.08;;
27209;SDS011;14721;42.668;23.386;2022-10-16T14:46:11;3.85;;;1.63;;
27209;SDS011;14721;42.668;23.386;2022-10-16T14:48:43;3.20;;;1.85;;
27209;SDS011;14721;42.668;23.386;2022-10-16T14:51:14;5.05;;;1.80;;
27209;SDS011;14721;42.668;23.386;2022-10-16T14:53:41;3.47;;;1.83;;
27209;SDS011;14721;42.668;23.386;2022-10-16T14:56:53;9.73;;;2.15;;
27209;SDS011;14721;42.668;23.386;2022-10-16T14:59:07;4.53;;;1.38;;
27209;SDS011;14721;42.668;23.386;2022-10-16T15:01:39;4.15;;;1.77;;
27209;SDS011;14721;42.668;23.386;2022-10-16T15:04:07;4.55;;;2.13;;
27209;SDS011;14721;42.668;23.386;2022-10-16T15:06:36;3.30;;;1.60;;
27209;SDS011;14721;42.668;23.386;2022-10-16T15:09:01;3.05;;;1.73;;
27209;SDS011;14721;42.668;23.386;2022-10-16T15:11:30;2.88;;;1.73;;
27209;SDS011;14721;42.668;23.386;2022-10-16T15:13:57;3.03;;;1.50;;
27209;SDS011;14721;42.668;23.386;2022-10-16T15:16:23;2.75;;;1.90;;
27209;SDS011;14721;42.668;23.386;2022-10-16T15:18:48;4.72;;;2.40;;
27209;SDS011;14721;42.668;23.386;2022-10-16T15:21:20;3.58;;;1.67;;
27209;SDS011;14721;42.668;23.386;2022-10-16T15:24:09;4.28;;;1.83;;
27209;SDS011;14721;42.668;23.386;2022-10-16T15:26:40;4.80;;;1.75;;
27209;SDS011;14721;42.668;23.386;2022-10-16T15:29:07;4.13;;;1.50;;
27209;SDS011;14721;42.668;23.386;2022-10-16T15:31:35;4.10;;;1.83;;
27209;SDS011;14721;42.668;23.386;2022-10-16T15:34:02;3.65;;;2.10;;
27209;SDS011;14721;42.668;23.386;2022-10-16T15:36:32;6.03;;;2.05;;
27209;SDS011;14721;42.668;23.386;2022-10-16T15:39:02;7.63;;;1.88;;
27209;SDS011;14721;42.668;23.386;2022-10-16T15:41:28;2.90;;;1.48;;
27209;SDS011;14721;42.668;23.386;2022-10-16T15:43:54;3.63;;;1.63;;
27209;SDS011;14721;42.668;23.386;2022-10-16T15:46:20;2.42;;;1.48;;
27209;SDS011;14721;42.668;23.386;2022-10-16T15:48:48;3.88;;;1.92;;
27209;SDS011;14721;42.668;23.386;2022-10-16T15:51:14;4.38;;;2.20;;
27209;SDS011;14721;42.668;23.386;2022-10-16T15:53:41;9.75;;;1.98;;
27209;SDS011;14721;42.668;23.386;2022-10-16T15:56:07;3.55;;;1.67;;
27209;SDS011;14721;42.668;23.386;2022-10-16T15:58:39;7.55;;;1.95;;
27209;SDS011;14721;42.668;23.386;2022-10-16T16:01:05;2.38;;;1.63;;
27209;SDS011;14721;42.668;23.386;2022-10-16T16:03:32;7.55;;;2.38;;
27209;SDS011;14721;42.668;23.386;2022-10-16T16:05:58;5.72;;;1.98;;
27209;SDS011;14721;42.668;23.386;2022-10-16T16:08:28;7.18;;;2.47;;
27209;SDS011;14721;42.668;23.386;2022-10-16T16:10:57;5.38;;;2.10;;
27209;SDS011;14721;42.668;23.386;2022-10-16T16:13:33;6.22;;;3.10;;
27209;SDS011;14721;42.668;23.386;2022-10-16T16:15:59;4.90;;;2.13;;
27209;SDS011;14721;42.668;23.386;2022-10-16T16:18:25;3.70;;;2.15;;
27209;SDS011;14721;42.668;23.386;2022-10-16T16:20:51;11.15;;;2.60;;
27209;SDS011;14721;42.668;23.386;2022-10-16T16:23:17;6.20;;;3.10;;
27209;SDS011;14721;42.668;23.386;2022-10-16T16:25:44;6.18;;;2.97;;
27209;SDS011;14721;42.668;23.386;2022-10-16T16:28:09;7.97;;;2.65;;
27209;SDS011;14721;42.668;23.386;2022-10-16T16:30:39;7.15;;;2.65;;
27209;SDS011;14721;42.668;23.386;2022-10-16T16:33:05;8.13;;;4.50;;
27209;SDS011;14721;42.668;23.386;2022-10-16T16:35:30;9.07;;;3.05;;
27209;SDS011;14721;42.668;23.386;2022-10-16T16:37:56;5.25;;;2.55;;
27209;SDS011;14721;42.668;23.386;2022-10-16T16:40:21;10.77;;;4.43;;
27209;SDS011;14721;42.668;23.386;2022-10-16T16:42:47;17.67;;;8.00;;